createdAt,value
2019-03-26T00:00:54.504Z,0.80
2019-03-26T00:03:26.042Z,0.80
2019-03-26T00:05:57.574Z,2.20
2019-03-26T00:08:29.111Z,0.70
2019-03-26T00:11:00.615Z,0.70
2019-03-26T00:16:02.668Z,0.70
2019-03-26T00:18:34.266Z,0.60
2019-03-26T00:21:05.866Z,0.50
2019-03-26T00:23:37.374Z,0.50
2019-03-26T00:26:08.878Z,0.50
2019-03-26T00:28:40.420Z,0.50
2019-03-26T00:31:11.974Z,0.50
2019-03-26T00:33:43.558Z,0.50
2019-03-26T00:36:15.113Z,0.40
2019-03-26T00:38:46.730Z,0.40
2019-03-26T00:41:18.334Z,0.30
2019-03-26T00:43:49.850Z,0.30
2019-03-26T00:46:21.358Z,0.40
2019-03-26T00:48:52.911Z,0.30
2019-03-26T00:51:24.446Z,0.30
2019-03-26T00:53:56.018Z,0.30
2019-03-26T00:56:27.998Z,0.20
2019-03-26T00:58:59.501Z,0.10
2019-03-26T01:01:31.062Z,0.10
2019-03-26T01:04:02.580Z,0.10
2019-03-26T01:06:34.122Z,0.00
2019-03-26T01:09:07.262Z,0.00
2019-03-26T01:11:39.000Z,0.00
2019-03-26T01:14:11.666Z,-0.10
2019-03-26T01:16:43.116Z,-0.10
2019-03-26T01:19:14.677Z,-0.10
2019-03-26T01:21:46.626Z,-0.10
2019-03-26T01:24:18.150Z,-0.10
2019-03-26T01:26:49.694Z,-0.10
2019-03-26T01:29:21.205Z,-0.10
2019-03-26T01:31:52.690Z,-0.10
2019-03-26T01:34:24.200Z,0.00
2019-03-26T01:36:55.850Z,0.20
2019-03-26T01:39:27.401Z,0.30
2019-03-26T01:41:58.834Z,0.40
2019-03-26T01:44:30.374Z,0.50
2019-03-26T01:47:05.968Z,0.60
2019-03-26T01:49:37.618Z,0.60
2019-03-26T01:52:09.158Z,0.70
2019-03-26T01:57:11.090Z,0.90
2019-03-26T01:59:42.637Z,0.90
2019-03-26T02:02:14.217Z,0.90
2019-03-26T02:04:58.949Z,1.00
2019-03-26T02:07:19.246Z,1.00
2019-03-26T02:09:50.766Z,1.00
2019-03-26T02:12:22.670Z,1.00
2019-03-26T02:14:54.187Z,1.00
2019-03-26T02:17:25.694Z,1.00
2019-03-26T02:19:58.206Z,1.00
2019-03-26T02:22:29.792Z,1.10
2019-03-26T02:25:01.303Z,1.10
2019-03-26T02:27:32.909Z,1.10
2019-03-26T02:30:04.414Z,1.10
2019-03-26T02:32:36.303Z,1.10
2019-03-26T02:35:17.898Z,1.10
2019-03-26T02:37:41.086Z,1.20
2019-03-26T02:40:12.761Z,1.20
2019-03-26T02:42:44.327Z,1.20
2019-03-26T02:45:15.940Z,1.20
2019-03-26T02:47:47.753Z,1.10
2019-03-26T02:50:19.589Z,1.10
2019-03-26T02:52:51.111Z,1.20
2019-03-26T02:55:22.998Z,1.20
2019-03-26T02:57:54.502Z,1.10
2019-03-26T03:00:26.022Z,1.10
2019-03-26T03:02:57.643Z,1.10
2019-03-26T03:05:35.753Z,1.00
2019-03-26T03:08:02.415Z,1.00
2019-03-26T03:10:33.922Z,1.00
2019-03-26T03:13:05.551Z,1.00
2019-03-26T03:15:37.115Z,1.00
2019-03-26T03:18:08.633Z,0.90
2019-03-26T03:20:40.182Z,0.90
2019-03-26T03:23:11.643Z,0.90
2019-03-26T03:28:14.048Z,0.90
2019-03-26T03:30:45.547Z,1.00
2019-03-26T03:33:17.426Z,1.00
2019-03-26T03:35:52.761Z,0.80
2019-03-26T03:38:22.446Z,0.80
2019-03-26T03:40:53.946Z,0.80
2019-03-26T03:43:25.395Z,0.80
2019-03-26T03:45:56.897Z,0.80
2019-03-26T03:48:28.742Z,0.80
2019-03-26T03:51:02.765Z,0.90
2019-03-26T03:53:34.417Z,0.90
2019-03-26T03:56:08.230Z,0.90
2019-03-26T03:58:42.014Z,1.00
2019-03-26T04:01:13.534Z,1.00
2019-03-26T04:03:45.058Z,1.10
2019-03-26T04:06:16.626Z,1.10
2019-03-26T04:08:48.128Z,1.20
2019-03-26T04:11:19.971Z,1.20
2019-03-26T04:13:51.478Z,1.30
2019-03-26T04:16:22.979Z,1.30
2019-03-26T04:18:54.493Z,1.30
2019-03-26T04:21:26.039Z,1.40
2019-03-26T04:23:57.563Z,1.50
2019-03-26T04:26:29.098Z,1.40
2019-03-26T04:29:00.613Z,1.50
2019-03-26T04:31:32.047Z,1.50
2019-03-26T04:34:03.956Z,1.50
2019-03-26T04:39:07.003Z,1.60
2019-03-26T04:41:38.518Z,1.70
2019-03-26T04:44:10.059Z,1.60
2019-03-26T04:46:41.578Z,1.70
2019-03-26T04:49:13.210Z,1.70
2019-03-26T04:51:45.235Z,1.70
2019-03-26T04:54:16.778Z,1.70
2019-03-26T04:56:48.361Z,1.60
2019-03-26T04:59:19.918Z,1.60
2019-03-26T05:01:51.426Z,1.70
2019-03-26T05:04:23.081Z,1.70
2019-03-26T05:06:54.593Z,1.70
2019-03-26T05:09:26.182Z,1.70
2019-03-26T05:11:57.782Z,1.70
2019-03-26T05:14:29.879Z,1.70
2019-03-26T07:37:11.258Z,5.20
2019-03-26T07:39:42.798Z,4.90
2019-03-26T07:47:16.814Z,5.70
2019-03-26T07:49:48.387Z,6.50
2019-03-26T07:52:20.073Z,6.00
2019-03-26T07:54:51.780Z,5.70
2019-03-26T07:57:23.304Z,5.40
2019-03-26T07:59:54.974Z,5.40
2019-03-26T08:02:26.802Z,5.30
2019-03-26T08:04:58.265Z,5.30
2019-03-26T08:07:34.095Z,5.20
2019-03-26T08:10:06.011Z,5.30
2019-03-26T08:12:37.984Z,5.90
2019-03-26T08:15:09.876Z,6.10
2019-03-26T08:17:41.446Z,6.20
2019-03-26T08:20:14.488Z,6.40
2019-03-26T08:22:46.007Z,6.70
2019-03-26T08:25:17.695Z,7.00
2019-03-26T08:27:49.262Z,6.30
2019-03-26T08:30:22.892Z,5.70
2019-03-26T08:32:54.679Z,5.60
2019-03-26T08:35:26.258Z,5.50
2019-03-26T08:38:11.779Z,5.20
2019-03-26T08:40:32.898Z,5.00
2019-03-26T08:43:04.542Z,5.00
2019-03-26T08:45:36.043Z,4.90
2019-03-26T08:48:07.546Z,4.90
2019-03-26T08:53:09.591Z,4.90
2019-03-26T08:55:41.457Z,4.90
2019-03-26T08:58:13.164Z,4.90
2019-03-26T09:00:44.774Z,5.00
2019-03-26T09:03:16.493Z,5.20
2019-03-26T09:05:48.006Z,5.30
2019-03-26T09:08:25.215Z,5.20
2019-03-26T09:13:23.545Z,5.00
2019-03-26T09:15:55.330Z,4.80
2019-03-26T09:18:27.109Z,4.60
2019-03-26T09:20:58.794Z,4.60
2019-03-26T09:23:30.754Z,4.60
2019-03-26T09:26:02.698Z,4.70
2019-03-26T09:28:34.618Z,5.10
2019-03-26T09:31:06.354Z,5.50
2019-03-26T09:33:38.295Z,5.20
2019-03-26T09:36:09.786Z,4.50
2019-03-26T09:38:41.550Z,4.10
2019-03-26T09:41:13.318Z,3.90
2019-03-26T09:43:45.336Z,4.10
2019-03-26T09:46:17.162Z,4.30
2019-03-26T09:48:49.197Z,4.40
2019-03-26T09:51:21.032Z,4.50
2019-03-26T09:53:52.578Z,4.40
2019-03-26T09:56:30.616Z,4.50
2019-03-26T09:58:57.717Z,4.50
2019-03-26T10:03:59.924Z,4.50
2019-03-26T10:06:31.822Z,4.70
2019-03-26T10:09:03.720Z,4.70
2019-03-26T10:11:35.554Z,4.80
2019-03-26T10:14:07.327Z,4.60
2019-03-26T10:16:38.990Z,4.60
2019-03-26T10:19:10.473Z,4.70
2019-03-26T10:21:41.962Z,4.60
2019-03-26T10:29:29.216Z,4.50
2019-03-26T10:31:47.930Z,4.40
2019-03-26T10:34:19.422Z,4.50
2019-03-26T10:39:21.452Z,4.50
2019-03-26T10:41:52.979Z,4.70
2019-03-26T10:44:24.473Z,4.80
2019-03-26T10:46:56.022Z,4.90
2019-03-26T10:49:27.547Z,4.90
2019-03-26T10:51:59.025Z,4.80
2019-03-26T10:57:01.363Z,5.30
2019-03-26T10:59:33.935Z,5.50
2019-03-26T11:02:05.442Z,6.60
2019-03-26T11:04:37.050Z,7.90
2019-03-26T11:07:08.534Z,10.60
2019-03-26T11:09:40.030Z,10.30
2019-03-26T11:19:42.774Z,6.50
2019-03-26T11:22:14.375Z,6.10
2019-03-26T11:24:45.862Z,5.80
2019-03-26T11:27:17.363Z,5.70
2019-03-26T11:29:48.846Z,5.70
2019-03-26T11:32:20.374Z,5.80
2019-03-26T11:34:51.854Z,5.90
2019-03-26T11:37:23.370Z,6.10
2019-03-26T11:39:54.794Z,6.20
2019-03-26T11:42:26.290Z,6.20
2019-03-26T11:44:59.425Z,6.00
2019-03-26T11:47:31.103Z,5.90
2019-03-26T11:50:04.774Z,5.80
2019-03-26T11:52:35.939Z,5.80
2019-03-26T11:55:07.642Z,5.80
2019-03-26T11:57:39.058Z,5.80
2019-03-26T12:00:11.441Z,5.70
2019-03-26T12:02:42.922Z,5.70
2019-03-26T12:05:14.666Z,5.80
2019-03-26T12:07:46.210Z,5.80
2019-03-26T12:10:17.714Z,5.90
2019-03-26T12:12:49.294Z,7.00
2019-03-26T12:15:20.785Z,9.20
2019-03-26T12:17:52.329Z,8.00
2019-03-26T12:20:23.785Z,7.50
2019-03-26T12:22:55.346Z,7.90
2019-03-26T12:25:26.861Z,7.90
2019-03-26T12:27:58.273Z,7.70
2019-03-26T12:30:34.465Z,7.20
2019-03-26T12:33:06.477Z,6.90
2019-03-26T12:35:37.981Z,6.80
2019-03-26T12:38:27.638Z,6.60
2019-03-26T12:40:59.090Z,6.40
2019-03-26T12:43:30.638Z,6.40
2019-03-26T12:46:02.177Z,6.30
2019-03-26T12:48:34.599Z,6.30
2019-03-26T12:51:06.077Z,6.30
2019-03-26T12:53:37.493Z,6.30
2019-03-26T12:56:08.981Z,6.40
2019-03-26T12:58:40.579Z,6.60
2019-03-26T13:01:12.094Z,6.80
2019-03-26T13:03:43.622Z,7.20
2019-03-26T13:06:15.083Z,7.60
2019-03-26T13:08:46.570Z,8.10
2019-03-26T13:11:18.022Z,8.60
2019-03-26T13:13:49.510Z,8.60
2019-03-26T13:16:20.946Z,8.30
2019-03-26T13:18:52.433Z,8.10
2019-03-26T13:21:23.985Z,8.00
2019-03-26T13:23:55.647Z,10.40
2019-03-26T13:26:27.158Z,10.00
2019-03-26T13:28:58.601Z,11.90
2019-03-26T13:31:30.030Z,13.00
2019-03-26T13:34:01.454Z,10.40
2019-03-26T13:36:32.967Z,9.40
2019-03-26T13:39:05.586Z,8.30
2019-03-26T13:41:37.526Z,8.10
2019-03-26T13:44:08.974Z,7.90
2019-03-26T13:46:40.472Z,8.20
2019-03-26T13:49:12.254Z,8.00
2019-03-26T13:54:14.021Z,7.60
2019-03-26T13:56:45.454Z,7.50
2019-03-26T13:59:16.974Z,7.30
2019-03-26T14:01:48.470Z,7.30
2019-03-26T14:04:20.062Z,7.80
2019-03-26T14:06:52.647Z,7.80
2019-03-26T14:09:24.270Z,7.80
2019-03-26T14:11:57.713Z,7.40
2019-03-26T14:14:28.951Z,7.20
2019-03-26T14:22:01.361Z,7.00
2019-03-26T14:24:32.902Z,7.10
2019-03-26T14:27:04.422Z,7.20
2019-03-26T14:29:35.979Z,7.30
2019-03-26T14:32:07.491Z,7.30
2019-03-26T14:34:39.043Z,7.40
2019-03-26T14:37:10.558Z,7.40
2019-03-26T14:39:41.968Z,7.80
2019-03-26T14:42:13.482Z,8.20
2019-03-26T14:44:44.969Z,8.10
2019-03-26T14:47:16.504Z,7.80
2019-03-26T14:49:47.989Z,7.40
2019-03-26T14:52:19.559Z,7.20
2019-03-26T14:54:51.170Z,7.00
2019-03-26T14:57:22.658Z,7.00
2019-03-26T14:59:54.227Z,6.90
2019-03-26T15:02:25.918Z,6.90
2019-03-26T15:04:57.502Z,6.80
2019-03-26T15:10:18.406Z,6.80
2019-03-26T15:12:49.997Z,6.80
2019-03-26T15:15:21.612Z,6.80
2019-03-26T15:17:53.291Z,6.80
2019-03-26T15:22:57.960Z,6.80
2019-03-26T15:25:28.450Z,6.80
2019-03-26T15:27:59.885Z,6.80
2019-03-26T15:30:31.370Z,6.80
2019-03-26T15:35:33.685Z,6.80
2019-03-26T15:38:05.681Z,6.80
2019-03-26T15:40:37.332Z,6.90
2019-03-26T15:43:09.197Z,6.90
2019-03-26T15:45:40.854Z,6.90
2019-03-26T15:48:12.478Z,6.90
2019-03-26T15:50:48.293Z,6.90
2019-03-26T15:53:20.466Z,6.80
2019-03-26T15:55:52.180Z,6.60
2019-03-26T15:58:23.927Z,6.50
2019-03-26T16:00:55.562Z,6.30
2019-03-26T16:03:28.121Z,6.20
2019-03-26T16:05:59.610Z,6.10
2019-03-26T16:08:31.146Z,5.90
2019-03-26T16:11:02.781Z,5.80
2019-03-26T16:13:35.759Z,5.70
2019-03-26T16:16:07.479Z,5.70
2019-03-26T16:18:38.962Z,5.70
2019-03-26T16:21:10.441Z,5.60
2019-03-26T16:23:42.266Z,5.60
2019-03-26T16:26:13.681Z,5.50
2019-03-26T16:28:45.197Z,5.20
2019-03-26T16:31:17.069Z,5.10
2019-03-26T16:33:48.554Z,5.00
2019-03-26T16:36:19.970Z,5.00
2019-03-26T16:38:51.478Z,5.00
2019-03-26T16:41:22.954Z,5.00
2019-03-26T16:43:54.487Z,5.00
2019-03-26T16:46:25.977Z,5.10
2019-03-26T16:48:57.426Z,5.10
2019-03-26T16:53:59.194Z,5.20
2019-03-26T16:56:30.980Z,5.20
2019-03-26T17:01:32.939Z,5.20
2019-03-26T17:06:34.890Z,5.10
2019-03-26T17:09:07.974Z,5.10
2019-03-26T17:16:42.855Z,5.10
2019-03-26T17:19:14.679Z,5.00
2019-03-26T17:24:16.614Z,5.00
2019-03-26T17:26:48.134Z,5.00
2019-03-26T17:29:19.545Z,5.00
2019-03-26T17:31:55.164Z,5.10
2019-03-26T17:34:27.062Z,5.10
2019-03-26T17:36:58.731Z,5.10
2019-03-26T17:39:31.724Z,5.10
2019-03-26T17:42:16.171Z,5.20
2019-03-26T17:44:36.866Z,5.20
2019-03-26T17:47:08.350Z,5.20
2019-03-26T17:49:40.154Z,5.30
2019-03-26T17:52:12.070Z,5.20
2019-03-26T17:54:43.934Z,5.20
2019-03-26T17:57:15.522Z,5.30
2019-03-26T18:02:18.517Z,5.30
2019-03-26T18:04:50.879Z,5.40
2019-03-26T18:07:22.362Z,5.40
2019-03-26T18:09:54.130Z,5.10
2019-03-26T18:12:31.135Z,4.50
2019-03-26T18:14:58.782Z,4.00
2019-03-26T18:17:30.294Z,3.80
2019-03-26T18:20:01.859Z,3.50
2019-03-26T18:22:33.394Z,3.40
2019-03-26T18:25:05.398Z,3.30
2019-03-26T18:27:52.767Z,3.30
2019-03-26T18:30:24.261Z,3.30
2019-03-26T18:32:55.771Z,3.30
2019-03-26T18:35:28.326Z,3.30
2019-03-26T18:37:59.838Z,3.30
2019-03-26T18:40:31.386Z,3.30
2019-03-26T18:45:33.183Z,3.40
2019-03-26T18:48:04.754Z,3.50
2019-03-26T18:50:36.316Z,3.50
2019-03-26T18:53:08.790Z,3.50
2019-03-26T18:55:40.342Z,3.50
2019-03-26T18:58:12.123Z,3.60
2019-03-26T19:00:43.605Z,3.60
2019-03-26T19:03:15.152Z,3.60
2019-03-26T19:05:46.651Z,3.50
2019-03-26T19:08:18.128Z,3.40
2019-03-26T19:10:49.658Z,3.40
2019-03-26T19:13:21.090Z,3.30
2019-03-26T19:15:52.581Z,3.20
2019-03-26T19:18:24.066Z,3.20
2019-03-26T19:21:01.978Z,3.20
2019-03-26T19:28:38.526Z,3.20
2019-03-26T19:33:40.946Z,3.20
2019-03-26T19:38:42.918Z,3.20
2019-03-26T19:43:45.230Z,3.20
2019-03-26T19:48:47.142Z,3.20
2019-03-26T19:51:18.722Z,3.10
2019-03-26T19:53:50.194Z,3.20
2019-03-26T19:56:21.615Z,3.10
2019-03-26T19:58:53.130Z,3.10
2019-03-26T20:01:24.598Z,3.10
2019-03-26T20:03:55.999Z,3.10
2019-03-26T20:06:27.522Z,3.00
2019-03-26T20:08:59.062Z,3.00
2019-03-26T20:11:30.908Z,3.00
2019-03-26T20:14:02.433Z,3.00
2019-03-26T20:19:07.422Z,3.00
2019-03-26T20:21:39.976Z,3.00
2019-03-26T20:24:11.478Z,3.00
2019-03-26T20:29:13.558Z,2.90
2019-03-26T20:31:45.637Z,2.80
2019-03-26T20:34:17.541Z,2.80
2019-03-26T20:36:49.051Z,2.70
2019-03-26T20:39:20.867Z,2.60
2019-03-26T20:49:23.922Z,2.30
2019-03-26T20:51:55.926Z,2.20
2019-03-26T20:54:27.654Z,2.10
2019-03-26T20:59:30.793Z,2.00
2019-03-26T21:09:36.226Z,1.80
2019-03-26T21:12:08.388Z,1.70
2019-03-26T21:14:40.913Z,1.60
2019-03-26T21:22:22.654Z,1.40
2019-03-26T21:24:57.359Z,1.30
2019-03-26T21:27:31.950Z,1.30
2019-03-26T21:32:37.993Z,1.10
2019-03-26T21:35:09.870Z,1.10
2019-03-26T21:37:44.012Z,1.00
2019-03-26T21:40:16.910Z,0.90
2019-03-26T21:42:48.746Z,0.90
2019-03-26T21:45:32.769Z,0.80
2019-03-26T21:48:04.726Z,0.70
2019-03-26T21:50:36.257Z,0.70
2019-03-26T21:53:07.741Z,0.70
2019-03-26T21:55:39.262Z,0.70
2019-03-26T21:58:10.757Z,0.70
2019-03-26T22:00:44.369Z,0.70
2019-03-26T22:03:15.578Z,0.70
2019-03-26T22:05:48.081Z,0.70
2019-03-26T22:08:19.671Z,0.70
2019-03-26T22:13:21.513Z,0.70
2019-03-26T22:15:53.141Z,0.60
2019-03-26T22:18:24.724Z,0.50
2019-03-26T22:20:58.779Z,0.50
2019-03-26T22:23:33.653Z,0.40
2019-03-26T22:26:07.447Z,0.40
2019-03-26T22:28:44.057Z,0.30
2019-03-26T22:31:18.781Z,0.20
2019-03-26T22:33:51.249Z,0.20
2019-03-26T22:36:22.790Z,0.10
2019-03-26T22:38:54.257Z,0.10
2019-03-26T22:41:25.749Z,0.00
2019-03-26T22:43:57.254Z,0.00
2019-03-26T22:46:28.819Z,0.00
2019-03-26T22:49:00.330Z,0.00
2019-03-26T22:51:31.817Z,0.00
2019-03-26T22:56:34.598Z,-0.20
2019-03-26T22:59:06.139Z,-0.20
2019-03-26T23:01:38.609Z,-0.30
2019-03-26T23:04:10.257Z,-0.40
2019-03-26T23:06:41.726Z,-0.40
2019-03-26T23:09:13.337Z,-0.40
2019-03-26T23:11:44.910Z,-0.40
2019-03-26T23:14:16.712Z,-0.40
2019-03-26T23:16:48.422Z,-0.50
2019-03-26T23:19:19.917Z,-0.60
2019-03-26T23:21:51.382Z,-0.50
2019-03-26T23:24:23.670Z,-0.50
2019-03-26T23:26:56.263Z,-0.50
2019-03-26T23:29:28.278Z,-0.50
2019-03-26T23:32:00.101Z,-0.50
2019-03-26T23:34:32.042Z,-0.50
2019-03-26T23:37:03.582Z,-0.50
2019-03-26T23:39:41.754Z,-0.50
2019-03-26T23:42:17.731Z,-0.40
2019-03-26T23:44:58.198Z,-0.40
2019-03-26T23:47:28.871Z,-0.40
2019-03-26T23:50:00.728Z,-0.30
2019-03-26T23:52:32.315Z,-0.40
2019-03-26T23:55:03.990Z,-0.40
2019-03-26T23:57:37.403Z,-0.40
